createdAt,value
2018-06-13T00:00:14.560Z,15.69
2018-06-13T00:02:42.616Z,15.65
2018-06-13T00:05:10.652Z,15.60
2018-06-13T00:07:38.704Z,15.56
2018-06-13T00:10:06.735Z,15.57
2018-06-13T00:12:34.830Z,15.54
2018-06-13T00:15:02.860Z,15.46
2018-06-13T00:17:30.912Z,15.46
2018-06-13T00:19:58.952Z,15.44
2018-06-13T00:22:27.001Z,15.41
2018-06-13T00:24:55.038Z,15.40
2018-06-13T00:27:23.137Z,15.34
2018-06-13T00:29:51.204Z,15.26
2018-06-13T00:32:19.252Z,15.21
2018-06-13T00:34:47.341Z,15.11
2018-06-13T00:37:15.376Z,15.05
2018-06-13T00:39:43.429Z,14.96
2018-06-13T00:42:11.473Z,14.94
2018-06-13T00:44:39.523Z,14.96
2018-06-13T00:47:07.573Z,14.97
2018-06-13T00:49:35.628Z,14.99
2018-06-13T00:52:03.663Z,15.01
2018-06-13T00:54:31.724Z,15.02
2018-06-13T00:56:59.756Z,15.00
2018-06-13T00:59:27.819Z,14.98
2018-06-13T01:01:55.852Z,15.00
2018-06-13T01:04:23.904Z,15.04
2018-06-13T01:06:51.947Z,15.03
2018-06-13T01:09:20.008Z,15.03
2018-06-13T01:11:48.040Z,15.04
2018-06-13T01:14:16.089Z,15.05
2018-06-13T01:16:44.137Z,15.05
2018-06-13T01:19:12.181Z,14.95
2018-06-13T01:21:40.224Z,14.91
2018-06-13T01:24:08.294Z,14.94
2018-06-13T01:26:36.317Z,14.92
2018-06-13T01:29:04.360Z,14.92
2018-06-13T01:31:32.392Z,14.97
2018-06-13T01:34:00.432Z,14.98
2018-06-13T01:36:29.300Z,15.01
2018-06-13T01:38:57.620Z,15.05
2018-06-13T01:41:25.716Z,15.06
2018-06-13T01:43:53.748Z,15.07
2018-06-13T01:46:21.788Z,15.10
2018-06-13T01:48:49.839Z,15.11
2018-06-13T01:51:17.892Z,15.12
2018-06-13T01:53:45.966Z,15.14
2018-06-13T01:56:13.996Z,15.14
2018-06-13T01:58:42.053Z,15.14
2018-06-13T02:01:10.088Z,15.17
2018-06-13T02:03:38.122Z,15.16
2018-06-13T02:06:06.196Z,15.12
2018-06-13T02:08:34.236Z,15.13
2018-06-13T02:11:02.264Z,15.15
2018-06-13T02:13:30.299Z,15.18
2018-06-13T02:15:58.338Z,15.21
2018-06-13T02:18:26.371Z,15.19
2018-06-13T02:20:54.411Z,15.18
2018-06-13T02:23:22.455Z,15.17
2018-06-13T02:25:50.488Z,15.19
2018-06-13T02:28:18.540Z,15.21
2018-06-13T02:30:46.583Z,15.23
2018-06-13T02:33:14.629Z,15.23
2018-06-13T02:35:42.656Z,15.24
2018-06-13T02:38:10.694Z,15.25
2018-06-13T02:40:38.724Z,15.26
2018-06-13T02:43:06.767Z,15.22
2018-06-13T02:45:34.807Z,15.22
2018-06-13T02:48:02.841Z,15.24
2018-06-13T02:50:30.881Z,15.22
2018-06-13T02:52:58.944Z,15.23
2018-06-13T02:55:27.000Z,15.25
2018-06-13T02:57:55.046Z,15.27
2018-06-13T03:00:23.088Z,15.26
2018-06-13T03:02:51.124Z,15.26
2018-06-13T03:05:19.180Z,15.24
2018-06-13T03:07:47.217Z,15.20
2018-06-13T03:10:15.263Z,15.21
2018-06-13T03:12:43.284Z,15.20
2018-06-13T03:15:11.333Z,15.19
2018-06-13T03:17:39.374Z,15.16
2018-06-13T03:20:07.419Z,15.17
2018-06-13T03:22:35.461Z,15.18
2018-06-13T03:25:03.500Z,15.20
2018-06-13T03:27:31.544Z,15.22
2018-06-13T03:29:59.584Z,15.22
2018-06-13T03:32:27.633Z,15.23
2018-06-13T03:34:55.712Z,15.24
2018-06-13T03:37:23.748Z,15.26
2018-06-13T03:39:51.791Z,15.24
2018-06-13T03:42:19.828Z,15.26
2018-06-13T03:44:47.876Z,15.25
2018-06-13T03:47:15.907Z,15.21
2018-06-13T03:49:43.964Z,15.19
2018-06-13T03:52:11.995Z,15.17
2018-06-13T03:54:40.041Z,15.13
2018-06-13T03:57:08.076Z,15.11
2018-06-13T03:59:36.131Z,15.12
2018-06-13T04:02:04.170Z,15.10
2018-06-13T04:04:32.225Z,15.12
2018-06-13T04:07:00.260Z,15.14
2018-06-13T04:09:28.331Z,15.14
2018-06-13T04:11:56.361Z,15.17
2018-06-13T04:14:24.438Z,15.20
2018-06-13T04:16:52.471Z,15.26
2018-06-13T04:19:20.525Z,15.26
2018-06-13T04:21:48.569Z,15.29
2018-06-13T04:24:16.642Z,15.32
2018-06-13T04:26:44.748Z,15.35
2018-06-13T04:29:12.776Z,15.40
2018-06-13T04:31:40.816Z,15.37
2018-06-13T04:34:08.855Z,15.36
2018-06-13T04:36:36.893Z,15.37
2018-06-13T04:39:08.320Z,15.37
2018-06-13T04:41:36.476Z,15.38
2018-06-13T04:44:04.549Z,15.35
2018-06-13T04:46:32.615Z,15.36
2018-06-13T04:49:00.652Z,15.32
2018-06-13T04:51:28.693Z,15.29
2018-06-13T04:53:56.731Z,15.33
2018-06-13T04:56:24.795Z,15.31
2018-06-13T04:58:52.856Z,15.31
2018-06-13T05:01:20.913Z,15.38
2018-06-13T05:03:48.981Z,15.43
2018-06-13T05:06:17.024Z,15.48
2018-06-13T05:08:45.070Z,15.48
2018-06-13T05:11:13.153Z,15.51
2018-06-13T05:13:41.184Z,15.51
2018-06-13T05:16:09.265Z,15.55
2018-06-13T05:18:37.316Z,15.64
2018-06-13T05:21:05.364Z,15.73
2018-06-13T05:23:33.412Z,15.81
2018-06-13T05:26:01.495Z,15.88
2018-06-13T05:28:29.580Z,15.94
2018-06-13T05:30:57.656Z,15.98
2018-06-13T05:33:25.723Z,16.03
2018-06-13T05:35:53.772Z,16.12
2018-06-13T05:38:21.815Z,16.20
2018-06-13T05:40:49.868Z,16.27
2018-06-13T05:43:17.920Z,16.39
2018-06-13T05:45:45.992Z,16.47
2018-06-13T05:48:14.128Z,16.50
2018-06-13T05:50:42.200Z,16.46
2018-06-13T05:53:10.260Z,16.43
2018-06-13T05:55:38.333Z,16.44
2018-06-13T05:58:06.453Z,16.46
2018-06-13T06:00:34.553Z,16.50
2018-06-13T06:03:02.625Z,16.56
2018-06-13T06:05:30.709Z,16.56
2018-06-13T06:07:58.773Z,16.58
2018-06-13T06:10:26.911Z,16.63
2018-06-13T06:12:54.884Z,16.62
2018-06-13T06:15:22.948Z,16.65
2018-06-13T06:17:51.016Z,16.69
2018-06-13T06:20:19.088Z,16.75
2018-06-13T06:22:47.185Z,16.79
2018-06-13T06:25:15.240Z,16.85
2018-06-13T06:27:43.296Z,16.93
2018-06-13T06:30:11.368Z,16.97
2018-06-13T06:32:39.455Z,17.13
2018-06-13T06:35:07.536Z,17.30
2018-06-13T06:37:35.584Z,17.47
2018-06-13T06:40:03.636Z,17.71
2018-06-13T06:42:31.688Z,17.91
2018-06-13T06:44:59.737Z,17.91
2018-06-13T06:47:27.780Z,18.08
2018-06-13T06:49:55.847Z,18.21
2018-06-13T06:52:23.885Z,18.28
2018-06-13T06:54:51.932Z,18.26
2018-06-13T06:57:19.984Z,18.20
2018-06-13T06:59:48.073Z,18.16
2018-06-13T07:02:16.112Z,18.10
2018-06-13T07:04:44.170Z,18.08
2018-06-13T07:07:12.229Z,18.06
2018-06-13T07:09:40.302Z,18.07
2018-06-13T07:12:08.353Z,18.15
2018-06-13T07:14:36.408Z,18.22
2018-06-13T07:17:04.449Z,18.17
2018-06-13T07:19:32.507Z,18.06
2018-06-13T07:22:00.553Z,18.08
2018-06-13T07:24:28.601Z,18.10
2018-06-13T07:26:56.682Z,18.17
2018-06-13T07:29:24.716Z,18.18
2018-06-13T07:31:52.800Z,18.25
2018-06-13T07:34:20.849Z,18.20
2018-06-13T07:36:48.905Z,18.27
2018-06-13T07:39:16.942Z,18.27
2018-06-13T07:41:44.993Z,18.19
2018-06-13T07:44:13.042Z,18.23
2018-06-13T07:46:41.102Z,18.19
2018-06-13T07:49:09.133Z,18.19
2018-06-13T07:51:37.193Z,18.32
2018-06-13T07:54:05.281Z,18.51
2018-06-13T07:56:33.332Z,18.59
2018-06-13T07:59:01.376Z,18.81
2018-06-13T08:01:29.433Z,19.02
2018-06-13T08:03:57.476Z,19.23
2018-06-13T08:06:25.526Z,19.63
2018-06-13T08:08:53.607Z,19.94
2018-06-13T08:11:21.634Z,20.11
2018-06-13T08:13:49.669Z,20.24
2018-06-13T08:16:17.753Z,20.34
2018-06-13T08:18:45.784Z,20.52
2018-06-13T08:21:13.833Z,20.64
2018-06-13T08:23:41.880Z,20.57
2018-06-13T08:26:11.003Z,20.36
2018-06-13T08:28:39.012Z,20.23
2018-06-13T08:31:07.144Z,20.13
2018-06-13T08:33:35.223Z,19.99
2018-06-13T08:36:03.361Z,19.99
2018-06-13T08:38:31.400Z,20.09
2018-06-13T08:40:59.467Z,20.03
2018-06-13T08:43:27.510Z,20.07
2018-06-13T08:45:55.584Z,20.03
2018-06-13T08:48:23.611Z,19.92
2018-06-13T08:50:51.665Z,19.86
2018-06-13T08:53:19.724Z,19.84
2018-06-13T08:55:47.816Z,19.81
2018-06-13T08:58:15.853Z,19.83
2018-06-13T09:00:43.900Z,19.87
2018-06-13T09:03:11.957Z,19.89
2018-06-13T09:05:39.998Z,20.07
2018-06-13T09:08:08.066Z,20.53
2018-06-13T09:10:36.127Z,21.08
2018-06-13T09:13:04.176Z,21.66
2018-06-13T09:15:32.231Z,21.98
2018-06-13T09:18:00.329Z,21.97
2018-06-13T09:20:28.416Z,21.86
2018-06-13T09:22:56.468Z,21.70
2018-06-13T09:25:24.552Z,21.48
2018-06-13T09:27:52.595Z,21.27
2018-06-13T09:30:20.669Z,21.01
2018-06-13T09:32:48.737Z,20.76
2018-06-13T09:35:16.786Z,20.63
2018-06-13T09:37:44.902Z,20.71
2018-06-13T09:40:12.882Z,20.79
2018-06-13T09:42:40.932Z,20.73
2018-06-13T09:45:08.996Z,20.79
2018-06-13T09:47:37.053Z,21.01
2018-06-13T09:50:05.106Z,21.16
2018-06-13T09:52:33.148Z,21.22
2018-06-13T09:55:01.194Z,21.11
2018-06-13T09:57:29.264Z,21.16
2018-06-13T10:00:02.802Z,21.11
2018-06-13T10:02:37.897Z,21.05
2018-06-13T10:05:06.564Z,20.86
2018-06-13T10:07:34.624Z,20.70
2018-06-13T10:10:02.664Z,20.62
2018-06-13T10:12:30.728Z,20.53
2018-06-13T10:14:58.821Z,20.51
2018-06-13T10:17:26.821Z,20.46
2018-06-13T10:19:54.880Z,20.45
2018-06-13T10:22:22.936Z,20.46
2018-06-13T10:24:51.040Z,20.39
2018-06-13T10:27:55.258Z,20.37
2018-06-13T10:30:23.300Z,20.32
2018-06-13T10:32:51.362Z,20.39
2018-06-13T10:35:19.416Z,20.41
2018-06-13T10:37:47.488Z,20.46
2018-06-13T10:40:15.545Z,20.93
2018-06-13T10:42:43.585Z,21.68
2018-06-13T10:45:11.652Z,21.97
2018-06-13T10:47:39.694Z,21.91
2018-06-13T10:50:07.752Z,21.80
2018-06-13T10:52:35.814Z,21.64
2018-06-13T10:55:03.916Z,21.44
2018-06-13T10:57:31.964Z,21.25
2018-06-13T11:00:00.074Z,21.24
2018-06-13T11:02:28.125Z,21.34
2018-06-13T11:04:56.195Z,21.42
2018-06-13T11:07:24.236Z,21.35
2018-06-13T11:09:52.276Z,21.39
2018-06-13T11:12:20.324Z,21.40
2018-06-13T11:14:48.390Z,21.30
2018-06-13T11:17:16.450Z,21.19
2018-06-13T11:19:44.520Z,21.24
2018-06-13T11:22:12.576Z,21.18
2018-06-13T11:24:40.657Z,21.15
2018-06-13T11:27:08.704Z,21.18
2018-06-13T11:29:36.772Z,21.20
2018-06-13T11:32:04.868Z,21.21
2018-06-13T11:34:32.932Z,21.11
2018-06-13T11:37:01.140Z,20.85
2018-06-13T11:39:29.191Z,20.74
2018-06-13T11:41:57.235Z,20.57
2018-06-13T11:44:26.487Z,20.50
2018-06-13T11:46:54.711Z,20.23
2018-06-13T11:49:22.767Z,20.09
2018-06-13T11:51:50.820Z,20.09
2018-06-13T11:54:19.872Z,20.07
2018-06-13T11:56:47.992Z,20.07
2018-06-13T11:59:16.201Z,20.06
2018-06-13T12:01:44.484Z,20.01
2018-06-13T12:04:12.524Z,20.09
2018-06-13T12:06:40.618Z,20.23
2018-06-13T12:09:08.928Z,20.27
2018-06-13T12:11:37.018Z,20.27
2018-06-13T12:14:05.231Z,20.27
2018-06-13T12:16:33.299Z,20.16
2018-06-13T12:19:01.387Z,19.91
2018-06-13T12:21:29.538Z,19.77
2018-06-13T12:23:57.596Z,19.66
2018-06-13T12:26:25.684Z,19.57
2018-06-13T12:28:53.892Z,19.48
2018-06-13T12:31:21.945Z,19.37
2018-06-13T12:33:50.070Z,19.40
2018-06-13T12:36:18.124Z,19.53
2018-06-13T12:38:46.244Z,19.65
2018-06-13T12:41:14.319Z,19.75
2018-06-13T12:43:42.408Z,19.75
2018-06-13T12:46:10.469Z,19.90
2018-06-13T12:48:38.513Z,20.06
2018-06-13T12:51:06.556Z,20.12
2018-06-13T12:53:34.628Z,20.07
2018-06-13T12:56:02.700Z,19.91
2018-06-13T12:58:30.739Z,19.69
2018-06-13T13:00:58.801Z,19.62
2018-06-13T13:03:26.845Z,19.62
2018-06-13T13:05:54.905Z,19.70
2018-06-13T13:08:22.949Z,19.73
2018-06-13T13:10:51.000Z,19.77
2018-06-13T13:13:19.043Z,19.80
2018-06-13T13:15:47.272Z,19.82
2018-06-13T13:18:15.328Z,19.76
2018-06-13T13:20:43.372Z,19.80
2018-06-13T13:23:11.421Z,19.85
2018-06-13T13:25:39.453Z,19.95
2018-06-13T13:28:07.505Z,20.06
2018-06-13T13:30:35.524Z,20.06
2018-06-13T13:33:03.593Z,20.19
2018-06-13T13:35:31.624Z,20.21
2018-06-13T13:37:59.735Z,20.29
2018-06-13T13:40:27.753Z,20.15
2018-06-13T13:42:55.795Z,20.08
2018-06-13T13:45:23.875Z,19.98
2018-06-13T13:47:51.892Z,19.92
2018-06-13T13:50:19.930Z,19.93
2018-06-13T13:52:47.969Z,19.98
2018-06-13T13:55:16.009Z,19.98
2018-06-13T13:57:44.055Z,19.96
2018-06-13T14:00:12.155Z,20.01
2018-06-13T14:02:40.153Z,19.97
2018-06-13T14:05:08.196Z,20.07
2018-06-13T14:07:36.250Z,20.37
2018-06-13T14:10:04.300Z,20.62
2018-06-13T14:12:32.344Z,20.82
2018-06-13T14:15:00.392Z,20.78
2018-06-13T14:17:28.440Z,20.84
2018-06-13T14:19:56.487Z,20.92
2018-06-13T14:22:24.565Z,20.93
2018-06-13T14:24:52.589Z,21.14
2018-06-13T14:27:20.673Z,21.19
2018-06-13T14:29:48.725Z,21.24
2018-06-13T14:32:16.784Z,21.24
2018-06-13T14:34:44.833Z,21.21
2018-06-13T14:37:12.896Z,21.09
2018-06-13T14:39:40.948Z,20.96
2018-06-13T14:42:09.179Z,20.99
2018-06-13T14:44:37.216Z,20.90
2018-06-13T14:47:05.257Z,20.87
2018-06-13T14:49:33.312Z,20.89
2018-06-13T14:52:01.393Z,20.91
2018-06-13T14:54:29.432Z,20.91
2018-06-13T14:56:57.497Z,20.84
2018-06-13T14:59:25.532Z,20.78
2018-06-13T15:01:53.614Z,20.85
2018-06-13T15:04:34.415Z,20.86
2018-06-13T15:07:03.641Z,20.84
2018-06-13T15:09:31.710Z,20.70
2018-06-13T15:11:59.760Z,20.53
2018-06-13T15:14:27.918Z,20.56
2018-06-13T15:16:56.324Z,20.65
2018-06-13T15:19:24.378Z,20.71
2018-06-13T15:21:52.431Z,20.63
2018-06-13T15:24:20.525Z,20.62
2018-06-13T15:26:48.610Z,20.60
2018-06-13T15:29:16.663Z,20.50
2018-06-13T15:31:44.708Z,20.30
2018-06-13T15:34:12.756Z,20.12
2018-06-13T15:36:40.816Z,20.05
2018-06-13T15:39:11.740Z,20.08
2018-06-13T15:41:39.773Z,20.01
2018-06-13T15:44:07.870Z,19.97
2018-06-13T15:46:35.934Z,19.86
2018-06-13T15:49:03.977Z,19.83
2018-06-13T15:51:32.021Z,19.82
2018-06-13T15:54:00.516Z,19.73
2018-06-13T15:56:28.564Z,19.65
2018-06-13T15:58:56.612Z,19.72
2018-06-13T16:01:24.666Z,19.68
2018-06-13T16:03:52.737Z,19.55
2018-06-13T16:06:20.904Z,19.55
2018-06-13T16:08:49.063Z,19.42
2018-06-13T16:11:17.120Z,19.34
2018-06-13T16:13:45.171Z,19.24
2018-06-13T16:16:13.220Z,19.25
2018-06-13T16:18:41.301Z,19.31
2018-06-13T16:21:09.366Z,19.30
2018-06-13T16:23:37.486Z,19.28
2018-06-13T16:26:05.726Z,19.25
2018-06-13T16:28:33.777Z,19.31
2018-06-13T16:31:01.842Z,19.40
2018-06-13T16:33:29.890Z,19.37
2018-06-13T16:35:57.938Z,19.40
2018-06-13T16:38:26.024Z,19.32
2018-06-13T16:40:54.406Z,19.21
2018-06-13T16:43:22.581Z,19.13
2018-06-13T16:45:50.654Z,19.17
2018-06-13T16:48:18.683Z,19.21
2018-06-13T16:50:56.927Z,19.17
2018-06-13T16:53:36.408Z,19.09
2018-06-13T16:56:05.368Z,19.04
2018-06-13T16:58:33.420Z,19.01
2018-06-13T17:01:01.601Z,19.00
2018-06-13T17:03:29.719Z,19.06
2018-06-13T17:05:57.764Z,19.09
2018-06-13T17:08:25.876Z,19.06
2018-06-13T17:10:54.974Z,19.04
2018-06-13T17:13:23.180Z,19.02
2018-06-13T17:15:51.336Z,19.05
2018-06-13T17:18:19.401Z,18.95
2018-06-13T17:20:47.492Z,18.93
2018-06-13T17:23:16.496Z,18.92
2018-06-13T17:25:44.576Z,18.93
2018-06-13T17:28:12.608Z,19.46
2018-06-13T17:30:40.652Z,20.16
2018-06-13T17:33:08.691Z,20.61
2018-06-13T17:35:36.732Z,20.43
2018-06-13T17:38:04.773Z,20.09
2018-06-13T17:40:32.816Z,19.76
2018-06-13T17:43:00.863Z,19.56
2018-06-13T17:45:28.932Z,19.42
2018-06-13T17:47:56.971Z,19.34
2018-06-13T17:50:25.037Z,19.28
2018-06-13T17:52:53.068Z,19.18
2018-06-13T17:55:21.108Z,19.00
2018-06-13T17:57:49.145Z,18.80
2018-06-13T18:00:17.193Z,18.72
2018-06-13T18:02:45.236Z,18.53
2018-06-13T18:05:13.284Z,18.44
2018-06-13T18:07:41.323Z,18.41
2018-06-13T18:10:09.652Z,18.36
2018-06-13T18:12:37.702Z,18.25
2018-06-13T18:15:05.869Z,18.21
2018-06-13T18:17:34.031Z,18.22
2018-06-13T18:20:02.117Z,18.25
2018-06-13T18:22:30.159Z,18.21
2018-06-13T18:24:58.653Z,18.20
2018-06-13T18:27:26.847Z,18.19
2018-06-13T18:29:56.945Z,18.17
2018-06-13T18:35:04.827Z,18.08
2018-06-13T18:37:36.800Z,18.01
2018-06-13T18:40:05.012Z,18.03
2018-06-13T18:42:35.036Z,18.03
2018-06-13T18:45:05.470Z,18.03
2018-06-13T18:47:33.652Z,18.05
2018-06-13T18:50:01.695Z,18.26
2018-06-13T18:52:29.737Z,18.81
2018-06-13T18:54:57.803Z,19.24
2018-06-13T18:57:25.966Z,19.15
2018-06-13T18:59:53.990Z,18.96
2018-06-13T19:02:22.048Z,18.82
2018-06-13T19:04:50.100Z,18.70
2018-06-13T19:07:18.156Z,18.60
2018-06-13T19:09:46.213Z,18.51
2018-06-13T19:12:14.268Z,18.40
2018-06-13T19:14:42.335Z,18.31
2018-06-13T19:17:10.397Z,18.16
2018-06-13T19:19:38.447Z,17.99
2018-06-13T19:22:06.256Z,17.85
2018-06-13T19:24:34.312Z,17.74
2018-06-13T19:27:02.378Z,17.67
2018-06-13T19:29:30.523Z,17.63
2018-06-13T19:31:58.571Z,17.65
2018-06-13T19:34:26.641Z,17.57
2018-06-13T19:36:54.688Z,17.56
2018-06-13T19:39:22.812Z,17.57
2018-06-13T19:41:50.876Z,17.53
2018-06-13T19:44:18.935Z,17.54
2018-06-13T19:46:47.206Z,17.48
2018-06-13T19:49:15.260Z,17.41
2018-06-13T19:51:43.428Z,17.38
2018-06-13T19:54:16.829Z,17.29
2018-06-13T19:56:44.885Z,17.24
2018-06-13T19:59:12.932Z,17.20
2018-06-13T20:01:41.044Z,17.21
2018-06-13T20:04:14.414Z,17.25
2018-06-13T20:06:42.486Z,17.28
2018-06-13T20:09:11.871Z,17.27
2018-06-13T20:11:40.152Z,17.28
2018-06-13T20:14:13.724Z,17.30
2018-06-13T20:16:51.215Z,17.28
2018-06-13T20:19:25.045Z,17.30
2018-06-13T20:22:05.756Z,17.30
2018-06-13T20:24:33.820Z,17.22
2018-06-13T20:27:07.358Z,17.20
2018-06-13T20:29:40.773Z,17.18
2018-06-13T20:32:08.842Z,17.13
2018-06-13T20:34:36.885Z,17.13
2018-06-13T20:37:04.993Z,17.13
2018-06-13T20:39:33.046Z,17.15
2018-06-13T20:42:01.094Z,17.12
2018-06-13T20:44:29.190Z,17.10
2018-06-13T20:46:57.236Z,17.11
2018-06-13T20:49:25.282Z,17.10
2018-06-13T20:51:53.341Z,17.10
2018-06-13T20:54:21.405Z,17.12
2018-06-13T20:56:49.464Z,17.10
2018-06-13T20:59:17.523Z,17.06
2018-06-13T21:01:45.588Z,17.07
2018-06-13T21:04:13.632Z,17.09
2018-06-13T21:06:44.143Z,17.12
2018-06-13T21:09:12.299Z,17.10
2018-06-13T21:11:40.400Z,17.06
2018-06-13T21:14:08.539Z,17.05
2018-06-13T21:16:36.593Z,17.08
2018-06-13T21:19:04.704Z,17.06
2018-06-13T21:21:32.760Z,17.03
2018-06-13T21:24:00.832Z,17.06
2018-06-13T21:26:28.894Z,17.09
2018-06-13T21:28:56.961Z,17.09
2018-06-13T21:31:25.052Z,17.07
2018-06-13T21:33:53.109Z,17.08
2018-06-13T21:36:21.153Z,17.10
2018-06-13T21:38:49.261Z,17.06
2018-06-13T21:41:17.323Z,17.03
2018-06-13T21:43:45.418Z,17.01
2018-06-13T21:46:13.468Z,17.00
2018-06-13T21:48:41.529Z,16.94
2018-06-13T21:51:09.612Z,16.91
2018-06-13T21:53:37.680Z,16.87
2018-06-13T21:56:05.734Z,16.83
2018-06-13T21:58:33.792Z,16.80
2018-06-13T22:01:01.929Z,16.78
2018-06-13T22:03:30.088Z,16.76
2018-06-13T22:05:58.140Z,16.73
2018-06-13T22:08:26.219Z,16.72
2018-06-13T22:10:54.272Z,16.71
2018-06-13T22:13:22.396Z,16.70
2018-06-13T22:15:50.457Z,16.66
2018-06-13T22:18:18.508Z,16.66
2018-06-13T22:20:46.564Z,16.63
2018-06-13T22:23:14.620Z,16.62
2018-06-13T22:25:42.695Z,16.62
2018-06-13T22:28:10.768Z,16.60
2018-06-13T22:30:38.833Z,16.58
2018-06-13T22:33:06.881Z,16.58
2018-06-13T22:35:34.932Z,16.57
2018-06-13T22:38:02.996Z,16.53
2018-06-13T22:40:31.056Z,16.51
2018-06-13T22:42:59.123Z,16.49
2018-06-13T22:45:27.184Z,16.49
2018-06-13T22:47:55.267Z,16.44
2018-06-13T22:50:23.308Z,16.44
2018-06-13T22:52:51.371Z,16.45
2018-06-13T22:55:19.438Z,16.45
2018-06-13T22:57:47.824Z,16.44
2018-06-13T23:00:23.036Z,16.43
2018-06-13T23:02:51.081Z,16.43
2018-06-13T23:05:19.156Z,16.43
2018-06-13T23:07:47.254Z,16.43
2018-06-13T23:10:15.267Z,16.42
2018-06-13T23:12:43.313Z,16.42
2018-06-13T23:15:11.367Z,16.40
2018-06-13T23:17:39.437Z,16.41
2018-06-13T23:20:07.509Z,16.42
2018-06-13T23:22:35.556Z,16.42
2018-06-13T23:25:03.644Z,16.42
2018-06-13T23:27:31.707Z,16.44
2018-06-13T23:29:59.780Z,16.47
2018-06-13T23:32:27.843Z,16.47
2018-06-13T23:34:55.896Z,16.46
2018-06-13T23:37:23.953Z,16.47
2018-06-13T23:39:52.012Z,16.47
2018-06-13T23:42:20.060Z,16.48
2018-06-13T23:44:48.100Z,16.48
2018-06-13T23:47:16.152Z,16.49
2018-06-13T23:49:44.203Z,16.50
2018-06-13T23:52:12.281Z,16.50
2018-06-13T23:54:40.327Z,16.51
2018-06-13T23:57:08.385Z,16.51
2018-06-13T23:59:36.447Z,16.48
